createdAt,value
2018-03-30T00:00:35.882Z,3.42
2018-03-30T00:01:35.934Z,3.42
2018-03-30T00:02:35.989Z,3.31
2018-03-30T00:03:36.041Z,3.35
2018-03-30T00:04:36.096Z,3.34
2018-03-30T00:05:36.153Z,3.30
2018-03-30T00:06:36.203Z,3.41
2018-03-30T00:07:36.256Z,3.28
2018-03-30T00:08:36.309Z,3.34
2018-03-30T00:09:36.362Z,3.39
2018-03-30T00:10:36.417Z,3.41
2018-03-30T00:11:36.470Z,3.45
2018-03-30T00:12:36.523Z,3.30
2018-03-30T00:13:36.577Z,3.28
2018-03-30T00:14:36.631Z,3.44
2018-03-30T00:15:36.687Z,3.31
2018-03-30T00:16:36.739Z,3.26
2018-03-30T00:17:36.790Z,3.33
2018-03-30T00:18:36.844Z,3.26
2018-03-30T00:19:36.905Z,3.30
2018-03-30T00:20:37.202Z,3.23
2018-03-30T00:21:37.005Z,3.23
2018-03-30T00:22:37.059Z,3.26
2018-03-30T00:23:37.114Z,3.28
2018-03-30T00:24:37.165Z,3.17
2018-03-30T00:25:37.369Z,3.23
2018-03-30T00:26:37.275Z,3.25
2018-03-30T00:27:37.327Z,3.31
2018-03-30T00:28:37.381Z,3.20
2018-03-30T00:29:37.433Z,3.20
2018-03-30T00:30:37.487Z,3.20
2018-03-30T00:31:37.541Z,3.25
2018-03-30T00:32:37.594Z,3.15
2018-03-30T00:33:37.648Z,3.16
2018-03-30T00:34:37.701Z,3.22
2018-03-30T00:35:37.754Z,3.25
2018-03-30T00:36:37.809Z,3.12
2018-03-30T00:37:37.860Z,3.17
2018-03-30T00:38:37.915Z,3.12
2018-03-30T00:39:37.972Z,3.16
2018-03-30T00:40:38.023Z,3.23
2018-03-30T00:41:38.074Z,3.17
2018-03-30T00:42:38.128Z,3.16
2018-03-30T00:43:38.182Z,3.19
2018-03-30T00:44:38.235Z,3.10
2018-03-30T00:45:38.289Z,3.12
2018-03-30T00:46:38.341Z,3.08
2018-03-30T00:47:38.396Z,3.05
2018-03-30T00:48:38.450Z,3.05
2018-03-30T00:49:38.501Z,3.05
2018-03-30T00:50:38.555Z,3.19
2018-03-30T00:51:38.608Z,3.17
2018-03-30T00:52:38.662Z,3.13
2018-03-30T00:53:38.716Z,3.15
2018-03-30T00:54:38.768Z,3.16
2018-03-30T00:55:38.823Z,3.10
2018-03-30T00:56:38.876Z,3.10
2018-03-30T00:57:38.930Z,3.15
2018-03-30T00:58:38.985Z,3.10
2018-03-30T00:59:39.037Z,3.16
2018-03-30T01:00:39.089Z,3.13
2018-03-30T01:01:39.142Z,3.07
2018-03-30T01:02:39.195Z,3.08
2018-03-30T01:03:39.257Z,2.97
2018-03-30T01:04:39.303Z,3.15
2018-03-30T01:05:39.356Z,2.99
2018-03-30T01:06:39.408Z,2.97
2018-03-30T01:07:39.463Z,3.04
2018-03-30T01:08:39.518Z,3.07
2018-03-30T01:09:39.570Z,3.04
2018-03-30T01:10:39.623Z,2.97
2018-03-30T01:11:39.677Z,3.01
2018-03-30T01:12:39.730Z,2.98
2018-03-30T01:13:39.782Z,3.10
2018-03-30T01:14:39.836Z,3.01
2018-03-30T01:15:39.891Z,2.97
2018-03-30T01:16:39.945Z,3.02
2018-03-30T01:17:39.998Z,2.99
2018-03-30T01:18:40.051Z,2.99
2018-03-30T01:19:40.104Z,3.05
2018-03-30T01:20:40.158Z,2.99
2018-03-30T01:21:40.210Z,2.97
2018-03-30T01:22:40.265Z,3.02
2018-03-30T01:23:40.317Z,3.02
2018-03-30T01:24:40.371Z,2.94
2018-03-30T01:25:40.424Z,2.99
2018-03-30T01:26:40.477Z,2.97
2018-03-30T01:27:40.530Z,3.02
2018-03-30T01:28:40.584Z,3.01
2018-03-30T01:29:40.636Z,3.04
2018-03-30T01:30:40.690Z,3.02
2018-03-30T01:31:40.745Z,3.05
2018-03-30T01:32:40.798Z,3.04
2018-03-30T01:33:40.851Z,2.99
2018-03-30T01:34:40.905Z,2.90
2018-03-30T01:35:40.958Z,2.90
2018-03-30T01:36:41.012Z,2.87
2018-03-30T01:37:41.064Z,2.84
2018-03-30T01:38:41.118Z,2.84
2018-03-30T01:39:41.170Z,2.87
2018-03-30T01:40:41.225Z,2.84
2018-03-30T01:41:41.276Z,2.90
2018-03-30T01:42:41.330Z,2.89
2018-03-30T01:43:41.382Z,2.95
2018-03-30T01:44:41.437Z,3.08
2018-03-30T01:45:41.495Z,2.99
2018-03-30T01:46:41.543Z,2.84
2018-03-30T01:47:41.596Z,2.90
2018-03-30T01:48:41.650Z,2.90
2018-03-30T01:49:41.854Z,2.94
2018-03-30T01:50:41.755Z,2.90
2018-03-30T01:51:41.811Z,3.01
2018-03-30T01:52:41.862Z,2.95
2018-03-30T01:53:41.915Z,2.87
2018-03-30T01:54:41.970Z,2.94
2018-03-30T01:55:42.024Z,2.89
2018-03-30T01:56:42.076Z,2.90
2018-03-30T01:57:42.133Z,2.89
2018-03-30T01:58:42.185Z,2.89
2018-03-30T01:59:42.236Z,2.92
2018-03-30T02:00:42.291Z,2.99
2018-03-30T02:01:42.387Z,2.99
2018-03-30T02:02:42.395Z,3.01
2018-03-30T02:03:42.448Z,3.02
2018-03-30T02:04:42.502Z,3.02
2018-03-30T02:05:42.554Z,3.02
2018-03-30T02:06:42.859Z,2.95
2018-03-30T02:07:42.663Z,2.86
2018-03-30T02:08:42.715Z,2.92
2018-03-30T02:09:42.768Z,2.94
2018-03-30T02:10:42.821Z,2.98
2018-03-30T02:11:42.875Z,2.87
2018-03-30T02:12:42.929Z,2.95
2018-03-30T02:13:42.980Z,2.97
2018-03-30T02:14:43.040Z,2.99
2018-03-30T02:15:43.488Z,2.97
2018-03-30T02:16:43.141Z,2.97
2018-03-30T02:17:43.194Z,2.98
2018-03-30T02:18:43.247Z,2.95
2018-03-30T02:19:43.303Z,2.92
2018-03-30T02:20:43.356Z,3.01
2018-03-30T02:21:43.408Z,2.98
2018-03-30T02:22:43.461Z,2.89
2018-03-30T02:23:43.514Z,2.97
2018-03-30T02:24:43.568Z,2.92
2018-03-30T02:25:43.625Z,2.95
2018-03-30T02:26:43.674Z,2.90
2018-03-30T02:27:43.727Z,2.87
2018-03-30T02:28:43.781Z,2.89
2018-03-30T02:29:43.834Z,2.94
2018-03-30T02:30:43.888Z,2.87
2018-03-30T02:31:43.940Z,2.94
2018-03-30T02:32:43.997Z,2.97
2018-03-30T02:33:44.048Z,2.89
2018-03-30T02:34:44.102Z,2.90
2018-03-30T02:35:44.156Z,2.99
2018-03-30T02:36:44.207Z,2.92
2018-03-30T02:37:44.262Z,3.01
2018-03-30T02:38:44.314Z,2.99
2018-03-30T02:39:44.369Z,2.98
2018-03-30T02:40:44.421Z,2.99
2018-03-30T02:41:44.473Z,2.89
2018-03-30T02:42:44.528Z,2.98
2018-03-30T02:43:44.582Z,2.92
2018-03-30T02:44:44.634Z,2.90
2018-03-30T02:45:44.686Z,2.89
2018-03-30T02:46:44.742Z,2.94
2018-03-30T02:47:44.794Z,2.92
2018-03-30T02:48:44.847Z,2.87
2018-03-30T02:49:44.907Z,2.86
2018-03-30T02:50:44.970Z,2.86
2018-03-30T02:51:45.008Z,2.81
2018-03-30T02:52:45.066Z,2.76
2018-03-30T02:53:45.116Z,2.83
2018-03-30T02:54:45.177Z,2.79
2018-03-30T02:55:45.221Z,2.79
2018-03-30T02:56:45.274Z,2.80
2018-03-30T02:57:45.326Z,2.87
2018-03-30T02:58:45.380Z,2.79
2018-03-30T02:59:45.432Z,2.81
2018-03-30T03:00:45.491Z,2.89
2018-03-30T03:01:45.540Z,2.84
2018-03-30T03:02:45.593Z,2.90
2018-03-30T03:03:45.654Z,2.90
2018-03-30T03:04:45.699Z,2.86
2018-03-30T03:05:45.754Z,2.92
2018-03-30T03:06:45.812Z,2.94
2018-03-30T03:07:45.860Z,2.89
2018-03-30T03:08:45.914Z,2.86
2018-03-30T03:09:45.966Z,2.90
2018-03-30T03:10:46.020Z,2.89
2018-03-30T03:11:46.073Z,2.90
2018-03-30T03:12:46.129Z,2.94
2018-03-30T03:13:46.180Z,2.89
2018-03-30T03:14:46.231Z,2.95
2018-03-30T03:15:46.287Z,2.87
2018-03-30T03:16:46.344Z,2.89
2018-03-30T03:17:46.393Z,2.84
2018-03-30T03:18:46.445Z,2.81
2018-03-30T03:19:46.499Z,2.79
2018-03-30T03:20:46.554Z,2.87
2018-03-30T03:21:46.605Z,2.87
2018-03-30T03:22:46.659Z,2.87
2018-03-30T03:23:46.714Z,2.92
2018-03-30T03:24:46.767Z,2.81
2018-03-30T03:25:46.819Z,2.92
2018-03-30T03:26:46.872Z,2.92
2018-03-30T03:27:46.925Z,2.97
2018-03-30T03:28:47.005Z,2.86
2018-03-30T03:29:47.033Z,2.94
2018-03-30T03:30:47.089Z,2.94
2018-03-30T03:31:47.147Z,2.99
2018-03-30T03:32:47.194Z,2.89
2018-03-30T03:33:47.247Z,2.87
2018-03-30T03:34:47.300Z,2.87
2018-03-30T03:35:47.355Z,2.79
2018-03-30T03:36:47.659Z,2.77
2018-03-30T03:37:47.461Z,2.76
2018-03-30T03:38:47.516Z,2.76
2018-03-30T03:39:47.569Z,2.84
2018-03-30T03:40:47.623Z,2.81
2018-03-30T03:41:47.826Z,2.83
2018-03-30T03:42:47.730Z,2.79
2018-03-30T03:43:47.784Z,2.83
2018-03-30T03:44:47.837Z,2.81
2018-03-30T03:45:47.891Z,2.81
2018-03-30T03:46:47.942Z,2.81
2018-03-30T03:47:47.997Z,2.83
2018-03-30T03:48:48.054Z,2.79
2018-03-30T03:49:48.106Z,2.84
2018-03-30T03:50:48.157Z,2.86
2018-03-30T03:51:48.210Z,2.81
2018-03-30T03:52:48.264Z,2.87
2018-03-30T03:53:48.317Z,2.80
2018-03-30T03:54:48.370Z,2.71
2018-03-30T03:55:48.424Z,2.73
2018-03-30T03:56:48.477Z,2.73
2018-03-30T03:57:48.536Z,2.66
2018-03-30T03:58:48.584Z,2.56
2018-03-30T03:59:48.639Z,2.59
2018-03-30T04:00:48.728Z,2.56
2018-03-30T04:01:48.745Z,2.56
2018-03-30T04:02:48.797Z,2.56
2018-03-30T04:03:48.851Z,2.48
2018-03-30T04:04:48.905Z,2.61
2018-03-30T04:05:48.958Z,2.55
2018-03-30T04:06:49.010Z,2.59
2018-03-30T04:07:49.066Z,2.58
2018-03-30T04:08:49.117Z,2.56
2018-03-30T04:09:49.173Z,2.56
2018-03-30T04:10:49.223Z,2.51
2018-03-30T04:11:49.277Z,2.38
2018-03-30T04:12:49.336Z,2.47
2018-03-30T04:13:49.383Z,2.44
2018-03-30T04:14:49.440Z,2.48
2018-03-30T04:15:49.490Z,2.40
2018-03-30T04:16:49.547Z,2.47
2018-03-30T04:17:49.596Z,2.37
2018-03-30T04:18:49.651Z,2.44
2018-03-30T04:19:49.703Z,2.44
2018-03-30T04:20:49.758Z,2.51
2018-03-30T04:21:49.808Z,2.55
2018-03-30T04:22:49.862Z,2.47
2018-03-30T04:23:49.916Z,2.48
2018-03-30T04:24:49.974Z,2.61
2018-03-30T04:25:50.022Z,2.47
2018-03-30T04:26:50.078Z,2.48
2018-03-30T04:27:50.129Z,2.56
2018-03-30T04:28:50.183Z,2.56
2018-03-30T04:29:50.236Z,2.51
2018-03-30T04:30:50.289Z,2.43
2018-03-30T04:31:50.342Z,2.38
2018-03-30T04:32:50.649Z,2.36
2018-03-30T04:33:50.450Z,2.36
2018-03-30T04:34:50.503Z,2.38
2018-03-30T04:35:50.556Z,2.37
2018-03-30T04:36:50.610Z,2.36
2018-03-30T04:37:50.663Z,2.32
2018-03-30T04:38:50.715Z,2.27
2018-03-30T04:39:50.769Z,2.27
2018-03-30T04:40:50.822Z,2.26
2018-03-30T04:41:50.875Z,2.30
2018-03-30T04:42:50.930Z,2.29
2018-03-30T04:43:50.981Z,2.23
2018-03-30T04:44:51.037Z,2.36
2018-03-30T04:45:51.088Z,2.30
2018-03-30T04:46:51.141Z,2.27
2018-03-30T04:47:51.195Z,2.33
2018-03-30T04:48:51.249Z,2.32
2018-03-30T04:49:51.302Z,2.32
2018-03-30T04:50:51.356Z,2.41
2018-03-30T04:51:51.410Z,2.47
2018-03-30T04:52:51.462Z,2.47
2018-03-30T04:53:51.519Z,2.43
2018-03-30T04:54:51.569Z,2.30
2018-03-30T04:55:51.623Z,2.20
2018-03-30T04:56:51.676Z,2.15
2018-03-30T04:57:51.729Z,2.15
2018-03-30T04:58:51.782Z,2.26
2018-03-30T04:59:51.839Z,2.14
2018-03-30T05:00:51.889Z,2.33
2018-03-30T05:01:51.942Z,2.32
2018-03-30T05:02:51.994Z,2.29
2018-03-30T05:03:52.048Z,2.14
2018-03-30T05:04:52.102Z,2.22
2018-03-30T05:05:52.154Z,2.26
2018-03-30T05:06:52.211Z,2.14
2018-03-30T05:07:52.267Z,2.11
2018-03-30T05:08:52.314Z,2.07
2018-03-30T05:09:52.366Z,2.19
2018-03-30T05:10:52.423Z,2.14
2018-03-30T05:11:52.473Z,2.30
2018-03-30T05:12:52.533Z,2.38
2018-03-30T05:13:52.579Z,2.29
2018-03-30T05:14:52.635Z,2.27
2018-03-30T05:15:52.687Z,2.19
2018-03-30T05:16:52.741Z,2.18
2018-03-30T05:17:52.792Z,2.15
2018-03-30T05:18:52.845Z,2.14
2018-03-30T05:19:52.901Z,2.15
2018-03-30T05:20:52.951Z,2.11
2018-03-30T05:21:53.004Z,2.20
2018-03-30T05:22:53.308Z,2.20
2018-03-30T05:23:53.111Z,2.19
2018-03-30T05:24:53.164Z,2.15
2018-03-30T05:25:53.215Z,2.14
2018-03-30T05:26:53.269Z,2.09
2018-03-30T05:27:53.322Z,2.08
2018-03-30T05:28:53.382Z,2.20
2018-03-30T05:29:53.427Z,2.20
2018-03-30T05:30:53.485Z,2.18
2018-03-30T05:31:53.537Z,2.09
2018-03-30T05:32:53.587Z,2.11
2018-03-30T05:33:53.640Z,2.08
2018-03-30T05:34:53.694Z,2.11
2018-03-30T05:35:53.748Z,2.11
2018-03-30T05:36:53.799Z,2.09
2018-03-30T05:37:53.850Z,2.14
2018-03-30T05:38:53.908Z,2.09
2018-03-30T05:39:53.958Z,2.12
2018-03-30T05:40:54.010Z,2.14
2018-03-30T05:41:54.063Z,2.20
2018-03-30T05:42:54.116Z,2.23
2018-03-30T05:43:54.170Z,2.18
2018-03-30T05:44:54.222Z,2.14
2018-03-30T05:45:54.275Z,2.22
2018-03-30T05:46:54.336Z,2.14
2018-03-30T05:47:54.382Z,2.23
2018-03-30T05:48:54.435Z,2.18
2018-03-30T05:49:54.487Z,2.22
2018-03-30T05:50:54.574Z,2.22
2018-03-30T05:51:54.601Z,2.19
2018-03-30T05:52:54.650Z,2.29
2018-03-30T05:53:54.699Z,2.26
2018-03-30T05:54:54.755Z,2.27
2018-03-30T05:55:54.807Z,2.26
2018-03-30T05:56:54.861Z,2.38
2018-03-30T05:57:54.917Z,2.33
2018-03-30T05:58:54.966Z,2.29
2018-03-30T05:59:55.019Z,2.29
2018-03-30T06:00:55.076Z,2.30
2018-03-30T06:01:55.127Z,2.43
2018-03-30T06:02:55.177Z,2.51
2018-03-30T06:03:55.232Z,2.59
2018-03-30T06:04:55.285Z,2.62
2018-03-30T06:05:55.337Z,2.74
2018-03-30T06:06:55.420Z,2.71
2018-03-30T06:07:55.445Z,2.71
2018-03-30T06:08:55.498Z,2.65
2018-03-30T06:09:55.551Z,2.71
2018-03-30T06:10:55.606Z,2.63
2018-03-30T06:11:55.663Z,2.65
2018-03-30T06:12:55.716Z,2.61
2018-03-30T06:13:55.765Z,2.58
2018-03-30T06:14:55.819Z,2.62
2018-03-30T06:15:55.872Z,2.62
2018-03-30T06:16:55.926Z,2.61
2018-03-30T06:17:55.978Z,2.66
2018-03-30T06:18:56.033Z,2.71
2018-03-30T06:19:56.085Z,2.68
2018-03-30T06:20:56.140Z,2.76
2018-03-30T06:21:56.192Z,2.76
2018-03-30T06:22:56.247Z,2.80
2018-03-30T06:23:56.306Z,2.73
2018-03-30T06:24:56.355Z,2.66
2018-03-30T06:25:56.408Z,2.59
2018-03-30T06:26:56.461Z,2.53
2018-03-30T06:27:56.519Z,2.61
2018-03-30T06:28:56.570Z,2.65
2018-03-30T06:29:56.622Z,2.66
2018-03-30T06:30:56.679Z,2.71
2018-03-30T06:31:56.730Z,2.83
2018-03-30T06:32:56.789Z,2.79
2018-03-30T06:33:56.837Z,2.92
2018-03-30T06:34:56.892Z,2.79
2018-03-30T06:35:56.947Z,2.84
2018-03-30T06:36:57.000Z,2.90
2018-03-30T06:37:57.053Z,2.90
2018-03-30T06:38:57.106Z,2.94
2018-03-30T06:39:57.160Z,2.87
2018-03-30T06:40:57.214Z,2.87
2018-03-30T06:41:57.269Z,3.01
2018-03-30T06:42:57.322Z,3.01
2018-03-30T06:43:57.377Z,3.02
2018-03-30T06:44:57.432Z,3.05
2018-03-30T06:45:57.484Z,3.01
2018-03-30T06:46:57.539Z,2.99
2018-03-30T06:47:57.593Z,3.12
2018-03-30T06:48:57.655Z,3.15
2018-03-30T06:49:57.701Z,3.10
2018-03-30T06:50:57.754Z,3.19
2018-03-30T06:51:57.809Z,3.25
2018-03-30T06:52:57.862Z,3.30
2018-03-30T06:53:57.916Z,3.31
2018-03-30T06:54:57.970Z,3.31
2018-03-30T06:55:58.024Z,3.23
2018-03-30T06:56:58.079Z,3.22
2018-03-30T06:57:58.132Z,3.20
2018-03-30T06:58:58.188Z,3.41
2018-03-30T06:59:58.586Z,3.28
2018-03-30T07:00:58.297Z,3.42
2018-03-30T07:01:58.355Z,3.49
2018-03-30T07:02:58.405Z,3.50
2018-03-30T07:03:58.459Z,3.59
2018-03-30T07:04:58.874Z,3.60
2018-03-30T07:05:58.568Z,3.62
2018-03-30T07:06:58.622Z,3.59
2018-03-30T07:07:58.677Z,3.57
2018-03-30T07:08:58.731Z,3.57
2018-03-30T07:09:58.785Z,3.59
2018-03-30T07:10:58.842Z,3.63
2018-03-30T07:11:58.894Z,3.71
2018-03-30T07:12:58.950Z,3.70
2018-03-30T07:13:59.003Z,3.74
2018-03-30T07:14:59.058Z,3.71
2018-03-30T07:15:59.123Z,3.81
2018-03-30T07:16:59.220Z,3.88
2018-03-30T07:17:59.222Z,3.90
2018-03-30T07:18:59.277Z,3.95
2018-03-30T07:19:59.333Z,3.98
2018-03-30T07:20:59.387Z,4.13
2018-03-30T07:21:59.442Z,4.10
2018-03-30T07:22:59.497Z,4.24
2018-03-30T07:23:59.553Z,4.29
2018-03-30T07:24:59.611Z,4.34
2018-03-30T07:25:59.663Z,4.42
2018-03-30T07:26:59.723Z,4.43
2018-03-30T07:27:59.772Z,4.46
2018-03-30T07:28:59.827Z,4.49
2018-03-30T07:29:59.880Z,4.46
2018-03-30T07:30:59.937Z,4.51
2018-03-30T07:31:59.992Z,4.56
2018-03-30T07:33:00.047Z,4.59
2018-03-30T07:34:00.103Z,4.59
2018-03-30T07:35:00.159Z,4.59
2018-03-30T07:36:00.214Z,4.65
2018-03-30T07:37:00.272Z,4.65
2018-03-30T07:38:00.324Z,4.68
2018-03-30T07:39:00.383Z,4.83
2018-03-30T07:40:00.918Z,4.71
2018-03-30T07:41:00.496Z,4.87
2018-03-30T07:42:00.544Z,4.90
2018-03-30T07:43:00.600Z,5.01
2018-03-30T07:44:00.657Z,5.04
2018-03-30T07:45:00.712Z,5.19
2018-03-30T07:46:00.767Z,5.15
2018-03-30T07:47:00.822Z,5.27
2018-03-30T07:48:00.879Z,5.22
2018-03-30T07:49:00.933Z,5.30
2018-03-30T07:50:01.039Z,5.38
2018-03-30T07:51:01.044Z,5.42
2018-03-30T07:52:01.102Z,5.55
2018-03-30T07:53:01.159Z,5.60
2018-03-30T07:54:01.215Z,5.60
2018-03-30T07:55:01.269Z,5.78
2018-03-30T07:56:01.323Z,5.83
2018-03-30T07:57:01.381Z,5.77
2018-03-30T07:58:01.439Z,5.84
2018-03-30T07:59:01.492Z,5.92
2018-03-30T08:00:01.547Z,5.96
2018-03-30T08:01:01.604Z,6.01
2018-03-30T08:02:01.660Z,6.06
2018-03-30T08:03:01.715Z,6.19
2018-03-30T08:04:01.773Z,6.35
2018-03-30T08:05:01.829Z,6.36
2018-03-30T08:06:01.885Z,6.30
2018-03-30T08:07:01.942Z,6.27
2018-03-30T08:08:01.998Z,6.30
2018-03-30T08:09:02.087Z,6.35
2018-03-30T08:10:02.110Z,6.45
2018-03-30T08:11:02.171Z,6.57
2018-03-30T08:12:02.227Z,6.58
2018-03-30T08:13:02.280Z,6.72
2018-03-30T08:14:02.338Z,6.78
2018-03-30T08:15:02.395Z,6.87
2018-03-30T08:16:02.452Z,6.96
2018-03-30T08:17:02.509Z,7.09
2018-03-30T08:18:02.564Z,7.07
2018-03-30T08:19:02.624Z,7.18
2018-03-30T08:20:02.929Z,7.21
2018-03-30T08:21:02.792Z,7.32
2018-03-30T08:22:02.792Z,7.44
2018-03-30T08:23:02.851Z,7.54
2018-03-30T08:24:02.909Z,7.55
2018-03-30T08:25:02.966Z,7.63
2018-03-30T08:26:03.022Z,7.63
2018-03-30T08:27:03.080Z,7.71
2018-03-30T08:28:03.140Z,7.85
2018-03-30T08:29:03.197Z,7.81
2018-03-30T08:30:03.254Z,7.84
2018-03-30T08:31:03.311Z,7.94
2018-03-30T08:32:03.369Z,7.96
2018-03-30T08:33:03.426Z,7.92
2018-03-30T08:34:03.486Z,8.07
2018-03-30T08:35:03.551Z,8.10
2018-03-30T08:36:03.600Z,8.17
2018-03-30T08:37:03.662Z,8.21
2018-03-30T08:38:03.715Z,8.25
2018-03-30T08:39:03.773Z,8.43
2018-03-30T08:40:03.832Z,8.47
2018-03-30T08:41:03.890Z,8.52
2018-03-30T08:42:03.948Z,8.64
2018-03-30T08:43:04.005Z,8.70
2018-03-30T08:44:04.215Z,8.65
2018-03-30T08:45:04.123Z,8.71
2018-03-30T08:46:04.184Z,8.80
2018-03-30T08:47:04.239Z,8.88
2018-03-30T08:48:04.297Z,8.96
2018-03-30T08:49:05.096Z,8.83
2018-03-30T08:50:04.415Z,8.85
2018-03-30T08:51:04.473Z,9.00
2018-03-30T08:52:04.531Z,9.10
2018-03-30T08:53:04.590Z,9.13
2018-03-30T08:54:04.650Z,9.26
2018-03-30T08:55:04.706Z,9.26
2018-03-30T08:56:04.785Z,9.27
2018-03-30T08:57:04.825Z,9.30
2018-03-30T08:58:04.886Z,9.35
2018-03-30T08:59:04.945Z,9.55
2018-03-30T09:00:05.002Z,9.63
2018-03-30T09:01:05.061Z,9.70
2018-03-30T09:02:05.118Z,9.63
2018-03-30T09:03:05.179Z,9.71
2018-03-30T09:04:05.238Z,9.70
2018-03-30T09:05:05.297Z,9.62
2018-03-30T09:06:05.357Z,9.67
2018-03-30T09:07:05.434Z,9.71
2018-03-30T09:08:05.476Z,9.70
2018-03-30T09:09:05.536Z,9.98
2018-03-30T09:10:05.594Z,10.14
2018-03-30T09:11:05.654Z,10.11
2018-03-30T09:12:06.278Z,10.17
2018-03-30T09:13:05.773Z,10.11
2018-03-30T09:14:05.831Z,10.18
2018-03-30T09:15:05.892Z,10.25
2018-03-30T09:16:05.953Z,10.49
2018-03-30T09:17:06.015Z,10.63
2018-03-30T09:18:06.072Z,10.76
2018-03-30T09:19:06.134Z,10.83
2018-03-30T09:20:06.192Z,10.75
2018-03-30T09:21:06.253Z,10.75
2018-03-30T09:22:06.312Z,10.86
2018-03-30T09:23:06.373Z,11.12
2018-03-30T09:24:06.433Z,11.23
2018-03-30T09:25:06.493Z,11.51
2018-03-30T09:26:06.553Z,11.53
2018-03-30T09:27:06.629Z,11.48
2018-03-30T09:28:06.675Z,11.56
2018-03-30T09:29:06.735Z,11.78
2018-03-30T09:30:06.796Z,11.78
2018-03-30T09:31:06.856Z,11.66
2018-03-30T09:32:06.917Z,11.57
2018-03-30T09:33:06.978Z,11.42
2018-03-30T09:34:07.037Z,11.53
2018-03-30T09:35:07.098Z,11.57
2018-03-30T09:36:07.161Z,11.63
2018-03-30T09:37:07.224Z,11.74
2018-03-30T09:38:07.281Z,11.64
2018-03-30T09:39:07.343Z,11.56
2018-03-30T09:40:07.405Z,11.56
2018-03-30T09:41:07.466Z,11.66
2018-03-30T09:42:07.525Z,11.82
2018-03-30T09:43:07.587Z,11.90
2018-03-30T09:44:07.648Z,12.18
2018-03-30T09:45:07.709Z,11.88
2018-03-30T09:46:07.770Z,12.03
2018-03-30T09:47:07.834Z,12.11
2018-03-30T09:48:07.893Z,12.25
2018-03-30T09:49:07.954Z,12.46
2018-03-30T09:50:08.014Z,12.62
2018-03-30T09:51:08.075Z,12.71
2018-03-30T09:52:08.136Z,12.76
2018-03-30T09:53:08.198Z,12.69
2018-03-30T09:54:08.259Z,12.81
2018-03-30T09:55:08.319Z,12.73
2018-03-30T09:56:08.382Z,12.54
2018-03-30T09:57:08.442Z,12.62
2018-03-30T09:58:08.504Z,12.77
2018-03-30T09:59:08.573Z,12.98
2018-03-30T10:00:08.628Z,13.04
2018-03-30T10:01:08.689Z,13.13
2018-03-30T10:02:08.749Z,13.12
2018-03-30T10:03:08.813Z,12.99
2018-03-30T10:04:08.873Z,13.13
2018-03-30T10:05:08.936Z,13.24
2018-03-30T10:06:08.997Z,13.54
2018-03-30T10:07:09.362Z,13.54
2018-03-30T10:08:09.121Z,13.31
2018-03-30T10:09:09.183Z,13.38
2018-03-30T10:10:09.246Z,13.57
2018-03-30T10:11:09.308Z,13.55
2018-03-30T10:12:09.370Z,13.28
2018-03-30T10:13:09.432Z,13.43
2018-03-30T10:14:09.493Z,13.46
2018-03-30T10:15:09.556Z,13.31
2018-03-30T10:16:09.620Z,13.27
2018-03-30T10:17:09.681Z,13.21
2018-03-30T10:18:09.762Z,13.31
2018-03-30T10:19:09.808Z,13.47
2018-03-30T10:20:09.868Z,13.13
2018-03-30T10:21:09.933Z,13.14
2018-03-30T10:22:09.992Z,13.31
2018-03-30T10:23:10.056Z,13.31
2018-03-30T10:24:10.134Z,13.27
2018-03-30T10:25:10.179Z,13.51
2018-03-30T10:26:10.244Z,13.63
2018-03-30T10:27:10.305Z,13.61
2018-03-30T10:28:10.370Z,13.66
2018-03-30T10:29:10.430Z,13.36
2018-03-30T10:30:10.491Z,13.36
2018-03-30T10:31:10.553Z,13.39
2018-03-30T10:32:10.616Z,13.50
2018-03-30T10:33:10.678Z,13.81
2018-03-30T10:34:10.742Z,14.05
2018-03-30T10:35:10.804Z,14.23
2018-03-30T10:36:10.865Z,14.24
2018-03-30T10:37:10.930Z,14.34
2018-03-30T10:38:10.990Z,14.38
2018-03-30T10:39:11.056Z,14.27
2018-03-30T10:40:11.116Z,14.24
2018-03-30T10:41:11.181Z,14.41
2018-03-30T10:42:11.239Z,14.08
2018-03-30T10:43:11.306Z,14.24
2018-03-30T10:44:11.364Z,14.21
2018-03-30T10:45:11.428Z,14.23
2018-03-30T10:46:11.488Z,14.54
2018-03-30T10:47:11.551Z,14.90
2018-03-30T10:48:11.614Z,14.98
2018-03-30T10:49:11.678Z,14.97
2018-03-30T10:50:11.738Z,15.07
2018-03-30T10:51:11.802Z,15.27
2018-03-30T10:52:11.865Z,15.44
2018-03-30T10:53:11.929Z,15.41
2018-03-30T10:54:11.991Z,14.97
2018-03-30T10:55:12.053Z,14.46
2018-03-30T10:56:12.118Z,14.30
2018-03-30T10:57:12.181Z,14.30
2018-03-30T10:58:12.245Z,14.27
2018-03-30T10:59:12.309Z,14.35
2018-03-30T11:00:12.371Z,14.53
2018-03-30T11:01:12.434Z,14.75
2018-03-30T11:02:12.497Z,14.97
2018-03-30T11:03:12.561Z,15.30
2018-03-30T11:04:12.627Z,15.38
2018-03-30T11:05:12.749Z,15.49
2018-03-30T11:06:12.752Z,15.74
2018-03-30T11:07:12.815Z,15.67
2018-03-30T11:08:12.879Z,15.55
2018-03-30T11:09:12.943Z,15.73
2018-03-30T11:10:13.007Z,15.68
2018-03-30T11:11:13.071Z,15.44
2018-03-30T11:12:13.134Z,15.35
2018-03-30T11:13:13.200Z,15.25
2018-03-30T11:14:13.263Z,15.34
2018-03-30T11:15:13.329Z,15.52
2018-03-30T11:16:13.396Z,15.49
2018-03-30T11:17:13.456Z,15.38
2018-03-30T11:18:13.520Z,15.38
2018-03-30T11:19:13.583Z,15.49
2018-03-30T11:20:13.647Z,15.58
2018-03-30T11:21:13.713Z,15.86
2018-03-30T11:22:13.776Z,15.86
2018-03-30T11:23:13.841Z,15.70
2018-03-30T11:24:13.905Z,15.35
2018-03-30T11:25:13.971Z,15.43
2018-03-30T11:26:14.333Z,15.58
2018-03-30T11:27:14.097Z,15.91
2018-03-30T11:28:14.163Z,15.52
2018-03-30T11:29:14.227Z,15.46
2018-03-30T11:30:14.292Z,15.48
2018-03-30T11:31:14.357Z,15.71
2018-03-30T11:32:14.420Z,16.01
2018-03-30T11:33:14.487Z,16.17
2018-03-30T11:34:14.551Z,16.29
2018-03-30T11:35:14.616Z,16.30
2018-03-30T11:36:14.684Z,16.25
2018-03-30T11:37:14.745Z,15.84
2018-03-30T11:38:14.810Z,15.86
2018-03-30T11:39:14.874Z,15.66
2018-03-30T11:40:14.940Z,15.43
2018-03-30T11:41:15.006Z,15.37
2018-03-30T11:42:15.069Z,15.46
2018-03-30T11:43:15.134Z,15.55
2018-03-30T11:44:15.200Z,15.70
2018-03-30T11:45:15.268Z,15.81
2018-03-30T11:46:15.332Z,15.62
2018-03-30T11:47:15.396Z,15.49
2018-03-30T11:48:15.461Z,15.59
2018-03-30T11:49:15.526Z,15.91
2018-03-30T11:50:15.590Z,16.11
2018-03-30T11:51:15.654Z,16.03
2018-03-30T11:52:15.721Z,15.85
2018-03-30T11:53:15.786Z,15.49
2018-03-30T11:54:15.851Z,15.37
2018-03-30T11:55:15.916Z,15.53
2018-03-30T11:56:15.983Z,15.48
2018-03-30T11:57:16.047Z,15.81
2018-03-30T11:58:16.111Z,15.89
2018-03-30T11:59:16.177Z,15.35
2018-03-30T12:00:16.242Z,15.33
2018-03-30T12:01:16.307Z,15.55
2018-03-30T12:02:16.372Z,15.60
2018-03-30T12:03:16.436Z,15.76
2018-03-30T12:04:16.503Z,15.64
2018-03-30T12:05:16.567Z,15.44
2018-03-30T12:06:16.633Z,15.44
2018-03-30T12:07:16.697Z,15.51
2018-03-30T12:08:16.762Z,15.49
2018-03-30T12:09:16.828Z,15.51
2018-03-30T12:10:16.894Z,15.46
2018-03-30T12:11:16.955Z,15.43
2018-03-30T12:12:17.021Z,15.60
2018-03-30T12:13:17.091Z,15.62
2018-03-30T12:14:17.153Z,15.71
2018-03-30T12:15:17.215Z,15.81
2018-03-30T12:16:17.282Z,15.59
2018-03-30T12:17:17.345Z,15.34
2018-03-30T12:18:17.411Z,15.55
2018-03-30T12:19:17.475Z,15.30
2018-03-30T12:20:17.539Z,15.30
2018-03-30T12:21:17.604Z,15.19
2018-03-30T12:22:17.669Z,15.22
2018-03-30T12:23:17.733Z,15.31
2018-03-30T12:24:17.797Z,15.43
2018-03-30T12:25:17.865Z,15.33
2018-03-30T12:26:17.924Z,15.53
2018-03-30T12:27:17.990Z,15.84
2018-03-30T12:28:18.057Z,15.86
2018-03-30T12:29:18.118Z,15.84
2018-03-30T12:30:18.181Z,15.48
2018-03-30T12:31:18.247Z,15.44
2018-03-30T12:32:18.311Z,15.15
2018-03-30T12:33:18.375Z,15.38
2018-03-30T12:34:18.693Z,15.30
2018-03-30T12:35:18.504Z,15.35
2018-03-30T12:36:18.569Z,14.98
2018-03-30T12:37:18.631Z,15.16
2018-03-30T12:38:18.698Z,15.01
2018-03-30T12:39:18.763Z,15.11
2018-03-30T12:40:18.823Z,15.12
2018-03-30T12:41:18.887Z,14.93
2018-03-30T12:42:18.952Z,14.78
2018-03-30T12:43:19.020Z,14.61
2018-03-30T12:44:19.080Z,14.24
2018-03-30T12:45:19.143Z,14.54
2018-03-30T12:46:19.236Z,14.59
2018-03-30T12:47:19.270Z,14.57
2018-03-30T12:48:19.334Z,14.67
2018-03-30T12:49:19.397Z,14.27
2018-03-30T12:50:19.462Z,14.54
2018-03-30T12:51:19.524Z,14.72
2018-03-30T12:52:19.588Z,14.80
2018-03-30T12:53:19.652Z,14.91
2018-03-30T12:54:19.715Z,15.12
2018-03-30T12:55:19.779Z,15.18
2018-03-30T12:56:19.846Z,15.13
2018-03-30T12:57:19.905Z,14.83
2018-03-30T12:58:19.968Z,14.91
2018-03-30T12:59:20.031Z,15.09
2018-03-30T13:00:20.099Z,15.04
2018-03-30T13:01:20.161Z,14.91
2018-03-30T13:02:20.221Z,14.98
2018-03-30T13:03:20.285Z,15.09
2018-03-30T13:04:20.349Z,15.11
2018-03-30T13:05:20.413Z,15.09
2018-03-30T13:06:20.475Z,15.22
2018-03-30T13:07:20.537Z,15.18
2018-03-30T13:08:20.602Z,15.13
2018-03-30T13:09:20.665Z,15.25
2018-03-30T13:10:20.728Z,15.35
2018-03-30T13:11:20.791Z,15.33